sensor_id;sensor_type;location;lat;lon;timestamp;temperature;humidity
4187;DHT22;2107;52.306;10.484;2023-07-16T00:02:01;20.70;99.90
4187;DHT22;2107;52.306;10.484;2023-07-16T00:04:27;20.70;99.90
4187;DHT22;2107;52.306;10.484;2023-07-16T00:06:54;20.70;99.90
4187;DHT22;2107;52.306;10.484;2023-07-16T00:09:21;20.60;99.90
4187;DHT22;2107;52.306;10.484;2023-07-16T00:11:48;20.60;99.90
4187;DHT22;2107;52.306;10.484;2023-07-16T00:14:15;20.60;99.90
4187;DHT22;2107;52.306;10.484;2023-07-16T00:16:43;20.60;99.90
4187;DHT22;2107;52.306;10.484;2023-07-16T00:19:11;20.50;99.90
4187;DHT22;2107;52.306;10.484;2023-07-16T00:21:38;20.50;99.90
4187;DHT22;2107;52.306;10.484;2023-07-16T00:24:05;20.50;99.90
4187;DHT22;2107;52.306;10.484;2023-07-16T00:26:32;20.50;99.90
4187;DHT22;2107;52.306;10.484;2023-07-16T00:28:59;20.60;99.90
4187;DHT22;2107;52.306;10.484;2023-07-16T00:31:26;20.60;99.90
4187;DHT22;2107;52.306;10.484;2023-07-16T00:33:54;20.80;99.90
4187;DHT22;2107;52.306;10.484;2023-07-16T00:36:21;20.80;99.90
4187;DHT22;2107;52.306;10.484;2023-07-16T00:38:47;20.90;99.90
4187;DHT22;2107;52.306;10.484;2023-07-16T00:41:15;20.90;99.90
4187;DHT22;2107;52.306;10.484;2023-07-16T00:43:42;20.90;99.90
4187;DHT22;2107;52.306;10.484;2023-07-16T00:46:10;20.90;99.90
4187;DHT22;2107;52.306;10.484;2023-07-16T00:48:37;20.90;99.90
4187;DHT22;2107;52.306;10.484;2023-07-16T00:51:06;20.90;99.90
4187;DHT22;2107;52.306;10.484;2023-07-16T00:53:33;20.90;99.90
4187;DHT22;2107;52.306;10.484;2023-07-16T00:56:00;20.80;99.90
4187;DHT22;2107;52.306;10.484;2023-07-16T00:58:27;20.80;99.90
4187;DHT22;2107;52.306;10.484;2023-07-16T01:00:54;20.80;99.90
4187;DHT22;2107;52.306;10.484;2023-07-16T01:03:20;20.80;99.90
4187;DHT22;2107;52.306;10.484;2023-07-16T01:05:51;20.80;99.90
4187;DHT22;2107;52.306;10.484;2023-07-16T01:08:29;20.80;99.90
4187;DHT22;2107;52.306;10.484;2023-07-16T01:10:58;20.80;99.90
4187;DHT22;2107;52.306;10.484;2023-07-16T01:13:25;20.70;99.90
4187;DHT22;2107;52.306;10.484;2023-07-16T01:15:52;20.60;99.90
4187;DHT22;2107;52.306;10.484;2023-07-16T01:18:19;20.60;99.90
4187;DHT22;2107;52.306;10.484;2023-07-16T01:20:45;20.60;99.90
4187;DHT22;2107;52.306;10.484;2023-07-16T01:23:45;20.60;99.90
4187;DHT22;2107;52.306;10.484;2023-07-16T01:26:51;20.60;99.90
4187;DHT22;2107;52.306;10.484;2023-07-16T01:29:34;20.70;99.90
4187;DHT22;2107;52.306;10.484;2023-07-16T01:32:03;20.70;99.90
4187;DHT22;2107;52.306;10.484;2023-07-16T01:34:32;20.70;99.90
4187;DHT22;2107;52.306;10.484;2023-07-16T01:37:00;20.70;99.90
4187;DHT22;2107;52.306;10.484;2023-07-16T01:39:28;20.70;99.90
4187;DHT22;2107;52.306;10.484;2023-07-16T01:41:54;20.60;99.90
4187;DHT22;2107;52.306;10.484;2023-07-16T01:44:21;20.60;99.90
4187;DHT22;2107;52.306;10.484;2023-07-16T01:47:04;20.50;99.90
4187;DHT22;2107;52.306;10.484;2023-07-16T01:49:32;20.50;99.90
4187;DHT22;2107;52.306;10.484;2023-07-16T01:51:59;20.60;99.90
4187;DHT22;2107;52.306;10.484;2023-07-16T01:54:26;20.50;99.90
4187;DHT22;2107;52.306;10.484;2023-07-16T01:56:53;20.50;99.90
4187;DHT22;2107;52.306;10.484;2023-07-16T01:59:20;20.60;99.90
4187;DHT22;2107;52.306;10.484;2023-07-16T02:01:47;20.60;99.90
4187;DHT22;2107;52.306;10.484;2023-07-16T02:04:15;20.60;99.90
4187;DHT22;2107;52.306;10.484;2023-07-16T02:06:42;20.50;99.90
4187;DHT22;2107;52.306;10.484;2023-07-16T02:09:10;20.40;99.90
4187;DHT22;2107;52.306;10.484;2023-07-16T02:11:37;20.50;99.90
4187;DHT22;2107;52.306;10.484;2023-07-16T02:14:03;20.50;99.90
4187;DHT22;2107;52.306;10.484;2023-07-16T02:16:30;20.50;99.90
4187;DHT22;2107;52.306;10.484;2023-07-16T02:18:57;20.40;99.90
4187;DHT22;2107;52.306;10.484;2023-07-16T02:21:25;20.40;99.90
4187;DHT22;2107;52.306;10.484;2023-07-16T02:23:52;20.30;99.90
4187;DHT22;2107;52.306;10.484;2023-07-16T02:26:19;20.30;99.90
4187;DHT22;2107;52.306;10.484;2023-07-16T02:28:46;20.20;99.90
4187;DHT22;2107;52.306;10.484;2023-07-16T02:31:12;20.20;99.90
4187;DHT22;2107;52.306;10.484;2023-07-16T02:33:39;20.20;99.90
4187;DHT22;2107;52.306;10.484;2023-07-16T02:36:06;20.20;99.90
4187;DHT22;2107;52.306;10.484;2023-07-16T02:38:34;20.20;99.90
4187;DHT22;2107;52.306;10.484;2023-07-16T02:41:01;20.10;99.90
4187;DHT22;2107;52.306;10.484;2023-07-16T02:43:28;20.00;99.90
4187;DHT22;2107;52.306;10.484;2023-07-16T02:45:55;19.70;99.90
4187;DHT22;2107;52.306;10.484;2023-07-16T02:48:22;19.40;99.90
4187;DHT22;2107;52.306;10.484;2023-07-16T02:50:48;19.10;99.90
4187;DHT22;2107;52.306;10.484;2023-07-16T02:53:15;18.80;99.90
4187;DHT22;2107;52.306;10.484;2023-07-16T02:55:45;18.70;99.90
4187;DHT22;2107;52.306;10.484;2023-07-16T02:58:12;18.60;99.90
4187;DHT22;2107;52.306;10.484;2023-07-16T03:00:39;18.50;99.90
4187;DHT22;2107;52.306;10.484;2023-07-16T03:03:05;18.50;99.90
4187;DHT22;2107;52.306;10.484;2023-07-16T03:05:32;18.40;99.90
4187;DHT22;2107;52.306;10.484;2023-07-16T03:07:59;18.30;99.90
4187;DHT22;2107;52.306;10.484;2023-07-16T03:10:26;18.20;99.90
4187;DHT22;2107;52.306;10.484;2023-07-16T03:12:54;18.20;99.90
4187;DHT22;2107;52.306;10.484;2023-07-16T03:15:21;18.10;99.90
4187;DHT22;2107;52.306;10.484;2023-07-16T03:17:48;18.10;99.90
4187;DHT22;2107;52.306;10.484;2023-07-16T03:20:15;18.00;99.90
4187;DHT22;2107;52.306;10.484;2023-07-16T03:22:44;17.90;99.90
4187;DHT22;2107;52.306;10.484;2023-07-16T03:25:11;17.90;99.90
4187;DHT22;2107;52.306;10.484;2023-07-16T03:27:37;17.90;99.90
4187;DHT22;2107;52.306;10.484;2023-07-16T03:30:07;17.80;99.90
4187;DHT22;2107;52.306;10.484;2023-07-16T03:32:34;17.70;99.90
4187;DHT22;2107;52.306;10.484;2023-07-16T03:35:01;17.70;99.90
4187;DHT22;2107;52.306;10.484;2023-07-16T03:37:28;17.70;99.90
4187;DHT22;2107;52.306;10.484;2023-07-16T03:39:54;17.70;99.90
4187;DHT22;2107;52.306;10.484;2023-07-16T03:42:21;17.60;99.90
4187;DHT22;2107;52.306;10.484;2023-07-16T03:44:48;17.60;99.90
4187;DHT22;2107;52.306;10.484;2023-07-16T03:47:16;17.70;99.90
4187;DHT22;2107;52.306;10.484;2023-07-16T03:49:43;17.70;99.90
4187;DHT22;2107;52.306;10.484;2023-07-16T03:52:10;17.70;99.90
4187;DHT22;2107;52.306;10.484;2023-07-16T03:54:37;17.50;99.90
4187;DHT22;2107;52.306;10.484;2023-07-16T03:57:04;17.50;99.90
4187;DHT22;2107;52.306;10.484;2023-07-16T03:59:31;17.50;99.90
4187;DHT22;2107;52.306;10.484;2023-07-16T04:01:58;17.50;99.90
4187;DHT22;2107;52.306;10.484;2023-07-16T04:04:26;17.40;99.90
4187;DHT22;2107;52.306;10.484;2023-07-16T04:06:53;17.50;99.90
4187;DHT22;2107;52.306;10.484;2023-07-16T04:09:21;17.60;99.90
4187;DHT22;2107;52.306;10.484;2023-07-16T04:11:49;17.60;99.90
4187;DHT22;2107;52.306;10.484;2023-07-16T04:14:15;17.60;99.90
4187;DHT22;2107;52.306;10.484;2023-07-16T04:16:42;17.60;99.90
4187;DHT22;2107;52.306;10.484;2023-07-16T04:19:09;17.60;99.90
4187;DHT22;2107;52.306;10.484;2023-07-16T04:21:37;17.60;99.90
4187;DHT22;2107;52.306;10.484;2023-07-16T04:24:05;17.70;99.90
4187;DHT22;2107;52.306;10.484;2023-07-16T04:26:32;17.80;99.90
4187;DHT22;2107;52.306;10.484;2023-07-16T04:28:59;18.00;99.90
4187;DHT22;2107;52.306;10.484;2023-07-16T04:31:26;18.10;99.90
4187;DHT22;2107;52.306;10.484;2023-07-16T04:33:53;18.00;99.90
4187;DHT22;2107;52.306;10.484;2023-07-16T04:36:20;17.90;99.90
4187;DHT22;2107;52.306;10.484;2023-07-16T04:38:48;17.70;99.90
4187;DHT22;2107;52.306;10.484;2023-07-16T04:41:16;17.60;99.90
4187;DHT22;2107;52.306;10.484;2023-07-16T04:43:43;17.60;99.90
4187;DHT22;2107;52.306;10.484;2023-07-16T04:46:10;17.50;99.90
4187;DHT22;2107;52.306;10.484;2023-07-16T04:48:37;17.50;99.90
4187;DHT22;2107;52.306;10.484;2023-07-16T04:51:04;17.50;99.90
4187;DHT22;2107;52.306;10.484;2023-07-16T04:53:31;17.50;99.90
4187;DHT22;2107;52.306;10.484;2023-07-16T04:55:59;17.50;99.90
4187;DHT22;2107;52.306;10.484;2023-07-16T04:58:26;17.80;99.90
4187;DHT22;2107;52.306;10.484;2023-07-16T05:00:52;17.90;99.90
4187;DHT22;2107;52.306;10.484;2023-07-16T05:03:19;18.10;99.90
4187;DHT22;2107;52.306;10.484;2023-07-16T05:05:46;18.30;99.90
4187;DHT22;2107;52.306;10.484;2023-07-16T05:08:13;18.70;99.90
4187;DHT22;2107;52.306;10.484;2023-07-16T05:10:40;19.00;99.90
4187;DHT22;2107;52.306;10.484;2023-07-16T05:13:08;19.60;99.90
4187;DHT22;2107;52.306;10.484;2023-07-16T05:15:35;20.00;99.90
4187;DHT22;2107;52.306;10.484;2023-07-16T05:18:02;20.00;99.90
4187;DHT22;2107;52.306;10.484;2023-07-16T05:20:29;20.10;99.90
4187;DHT22;2107;52.306;10.484;2023-07-16T05:22:56;20.40;99.90
4187;DHT22;2107;52.306;10.484;2023-07-16T05:25:23;20.50;99.90
4187;DHT22;2107;52.306;10.484;2023-07-16T05:27:50;20.60;99.90
4187;DHT22;2107;52.306;10.484;2023-07-16T05:30:18;20.80;99.90
4187;DHT22;2107;52.306;10.484;2023-07-16T05:32:45;20.80;99.90
4187;DHT22;2107;52.306;10.484;2023-07-16T05:35:12;20.80;99.90
4187;DHT22;2107;52.306;10.484;2023-07-16T05:37:39;21.00;99.90
4187;DHT22;2107;52.306;10.484;2023-07-16T05:40:07;21.30;99.90
4187;DHT22;2107;52.306;10.484;2023-07-16T05:42:34;21.00;99.90
4187;DHT22;2107;52.306;10.484;2023-07-16T05:45:01;21.30;99.90
4187;DHT22;2107;52.306;10.484;2023-07-16T05:47:29;21.60;99.90
4187;DHT22;2107;52.306;10.484;2023-07-16T05:49:56;22.30;99.90
4187;DHT22;2107;52.306;10.484;2023-07-16T05:52:23;23.00;99.90
4187;DHT22;2107;52.306;10.484;2023-07-16T05:54:49;23.40;99.90
4187;DHT22;2107;52.306;10.484;2023-07-16T05:57:16;23.20;99.90
4187;DHT22;2107;52.306;10.484;2023-07-16T05:59:43;22.90;99.90
4187;DHT22;2107;52.306;10.484;2023-07-16T06:02:10;23.00;99.90
4187;DHT22;2107;52.306;10.484;2023-07-16T06:04:38;23.00;99.90
4187;DHT22;2107;52.306;10.484;2023-07-16T06:07:06;23.40;99.90
4187;DHT22;2107;52.306;10.484;2023-07-16T06:09:33;23.20;99.90
4187;DHT22;2107;52.306;10.484;2023-07-16T06:11:59;23.50;99.90
4187;DHT22;2107;52.306;10.484;2023-07-16T06:14:26;23.80;99.90
4187;DHT22;2107;52.306;10.484;2023-07-16T06:16:53;23.70;99.90
4187;DHT22;2107;52.306;10.484;2023-07-16T06:19:20;23.90;99.90
4187;DHT22;2107;52.306;10.484;2023-07-16T06:21:48;24.10;99.90
4187;DHT22;2107;52.306;10.484;2023-07-16T06:24:15;23.80;99.90
4187;DHT22;2107;52.306;10.484;2023-07-16T06:26:42;23.80;99.90
4187;DHT22;2107;52.306;10.484;2023-07-16T06:29:08;24.00;99.90
4187;DHT22;2107;52.306;10.484;2023-07-16T06:31:35;23.80;99.90
4187;DHT22;2107;52.306;10.484;2023-07-16T06:34:02;24.20;99.90
4187;DHT22;2107;52.306;10.484;2023-07-16T06:36:29;24.50;99.90
4187;DHT22;2107;52.306;10.484;2023-07-16T06:38:57;24.40;99.90
4187;DHT22;2107;52.306;10.484;2023-07-16T06:41:25;24.60;99.90
4187;DHT22;2107;52.306;10.484;2023-07-16T06:43:52;24.40;99.90
4187;DHT22;2107;52.306;10.484;2023-07-16T06:46:19;23.90;99.90
4187;DHT22;2107;52.306;10.484;2023-07-16T06:48:46;24.00;99.90
4187;DHT22;2107;52.306;10.484;2023-07-16T06:51:13;24.20;99.90
4187;DHT22;2107;52.306;10.484;2023-07-16T06:53:39;23.70;99.90
4187;DHT22;2107;52.306;10.484;2023-07-16T06:56:08;24.00;99.90
4187;DHT22;2107;52.306;10.484;2023-07-16T06:58:35;23.70;99.90
4187;DHT22;2107;52.306;10.484;2023-07-16T07:01:01;23.70;99.90
4187;DHT22;2107;52.306;10.484;2023-07-16T07:03:28;23.50;99.90
4187;DHT22;2107;52.306;10.484;2023-07-16T07:05:55;23.20;99.90
4187;DHT22;2107;52.306;10.484;2023-07-16T07:08:22;23.50;99.90
4187;DHT22;2107;52.306;10.484;2023-07-16T07:10:49;23.60;99.90
4187;DHT22;2107;52.306;10.484;2023-07-16T07:13:17;23.70;99.90
4187;DHT22;2107;52.306;10.484;2023-07-16T07:15:44;24.80;99.90
4187;DHT22;2107;52.306;10.484;2023-07-16T07:18:11;25.60;99.90
4187;DHT22;2107;52.306;10.484;2023-07-16T07:20:39;25.50;99.90
4187;DHT22;2107;52.306;10.484;2023-07-16T07:23:07;25.80;99.90
4187;DHT22;2107;52.306;10.484;2023-07-16T07:25:33;25.80;99.90
4187;DHT22;2107;52.306;10.484;2023-07-16T07:28:00;26.20;99.90
4187;DHT22;2107;52.306;10.484;2023-07-16T07:30:29;26.10;99.90
4187;DHT22;2107;52.306;10.484;2023-07-16T07:32:56;25.90;99.90
4187;DHT22;2107;52.306;10.484;2023-07-16T07:35:22;26.00;99.90
4187;DHT22;2107;52.306;10.484;2023-07-16T07:37:49;25.30;99.90
4187;DHT22;2107;52.306;10.484;2023-07-16T07:40:21;24.20;99.90
4187;DHT22;2107;52.306;10.484;2023-07-16T07:42:48;23.80;99.90
4187;DHT22;2107;52.306;10.484;2023-07-16T07:45:15;24.10;99.90
4187;DHT22;2107;52.306;10.484;2023-07-16T07:47:43;24.30;99.90
4187;DHT22;2107;52.306;10.484;2023-07-16T07:50:10;24.90;99.90
4187;DHT22;2107;52.306;10.484;2023-07-16T07:52:37;24.80;99.90
4187;DHT22;2107;52.306;10.484;2023-07-16T07:55:05;24.40;99.90
4187;DHT22;2107;52.306;10.484;2023-07-16T07:57:32;24.60;99.90
4187;DHT22;2107;52.306;10.484;2023-07-16T07:59:58;24.50;99.90
4187;DHT22;2107;52.306;10.484;2023-07-16T08:02:25;24.50;99.90
4187;DHT22;2107;52.306;10.484;2023-07-16T08:04:54;24.60;99.90
4187;DHT22;2107;52.306;10.484;2023-07-16T08:07:21;24.40;99.90
4187;DHT22;2107;52.306;10.484;2023-07-16T08:09:49;24.40;99.90
4187;DHT22;2107;52.306;10.484;2023-07-16T08:12:15;24.40;99.90
4187;DHT22;2107;52.306;10.484;2023-07-16T08:14:42;24.70;99.90
4187;DHT22;2107;52.306;10.484;2023-07-16T08:17:09;24.60;99.90
4187;DHT22;2107;52.306;10.484;2023-07-16T08:19:36;24.70;99.90
4187;DHT22;2107;52.306;10.484;2023-07-16T08:22:05;24.70;98.50
4187;DHT22;2107;52.306;10.484;2023-07-16T08:24:32;24.80;99.90
4187;DHT22;2107;52.306;10.484;2023-07-16T08:26:59;25.20;97.50
4187;DHT22;2107;52.306;10.484;2023-07-16T08:29:25;25.60;96.70
4187;DHT22;2107;52.306;10.484;2023-07-16T08:31:52;25.80;95.10
4187;DHT22;2107;52.306;10.484;2023-07-16T08:34:19;25.10;94.30
4187;DHT22;2107;52.306;10.484;2023-07-16T08:36:46;24.80;94.80
4187;DHT22;2107;52.306;10.484;2023-07-16T08:39:14;24.90;95.10
4187;DHT22;2107;52.306;10.484;2023-07-16T08:41:40;25.20;94.80
4187;DHT22;2107;52.306;10.484;2023-07-16T08:44:07;25.60;95.50
4187;DHT22;2107;52.306;10.484;2023-07-16T08:46:34;25.70;95.80
4187;DHT22;2107;52.306;10.484;2023-07-16T08:49:03;25.60;95.70
4187;DHT22;2107;52.306;10.484;2023-07-16T08:51:31;25.90;95.80
4187;DHT22;2107;52.306;10.484;2023-07-16T08:53:59;26.20;94.90
4187;DHT22;2107;52.306;10.484;2023-07-16T08:56:27;26.00;91.70
4187;DHT22;2107;52.306;10.484;2023-07-16T08:58:55;26.00;90.70
4187;DHT22;2107;52.306;10.484;2023-07-16T09:01:22;26.00;91.00
4187;DHT22;2107;52.306;10.484;2023-07-16T09:03:49;26.00;88.40
4187;DHT22;2107;52.306;10.484;2023-07-16T09:06:16;26.30;88.10
4187;DHT22;2107;52.306;10.484;2023-07-16T09:08:43;26.60;90.50
4187;DHT22;2107;52.306;10.484;2023-07-16T09:11:11;26.80;87.00
4187;DHT22;2107;52.306;10.484;2023-07-16T09:13:45;26.70;85.30
4187;DHT22;2107;52.306;10.484;2023-07-16T09:16:12;26.60;83.70
4187;DHT22;2107;52.306;10.484;2023-07-16T09:18:42;26.40;83.20
4187;DHT22;2107;52.306;10.484;2023-07-16T09:21:09;26.80;86.20
4187;DHT22;2107;52.306;10.484;2023-07-16T09:23:36;26.80;85.70
4187;DHT22;2107;52.306;10.484;2023-07-16T09:26:04;27.10;84.00
4187;DHT22;2107;52.306;10.484;2023-07-16T09:28:31;27.30;84.40
4187;DHT22;2107;52.306;10.484;2023-07-16T09:31:05;27.30;81.80
4187;DHT22;2107;52.306;10.484;2023-07-16T09:33:32;26.70;80.30
4187;DHT22;2107;52.306;10.484;2023-07-16T09:35:59;26.90;81.10
4187;DHT22;2107;52.306;10.484;2023-07-16T09:38:28;26.40;77.50
4187;DHT22;2107;52.306;10.484;2023-07-16T09:40:56;25.70;80.40
4187;DHT22;2107;52.306;10.484;2023-07-16T09:43:23;26.80;82.60
4187;DHT22;2107;52.306;10.484;2023-07-16T09:45:50;27.60;78.20
4187;DHT22;2107;52.306;10.484;2023-07-16T09:48:18;27.40;76.50
4187;DHT22;2107;52.306;10.484;2023-07-16T09:50:50;27.30;75.20
4187;DHT22;2107;52.306;10.484;2023-07-16T09:53:19;27.50;75.80
4187;DHT22;2107;52.306;10.484;2023-07-16T09:55:46;27.80;75.80
4187;DHT22;2107;52.306;10.484;2023-07-16T09:58:13;26.60;71.60
4187;DHT22;2107;52.306;10.484;2023-07-16T10:00:41;26.40;74.40
4187;DHT22;2107;52.306;10.484;2023-07-16T10:03:09;26.30;76.40
4187;DHT22;2107;52.306;10.484;2023-07-16T10:05:38;26.40;75.30
4187;DHT22;2107;52.306;10.484;2023-07-16T10:08:05;27.20;76.40
4187;DHT22;2107;52.306;10.484;2023-07-16T10:10:42;27.70;74.80
4187;DHT22;2107;52.306;10.484;2023-07-16T10:13:12;27.50;72.60
4187;DHT22;2107;52.306;10.484;2023-07-16T10:15:39;26.90;71.30
4187;DHT22;2107;52.306;10.484;2023-07-16T10:18:23;26.70;73.80
4187;DHT22;2107;52.306;10.484;2023-07-16T10:20:52;26.80;72.70
4187;DHT22;2107;52.306;10.484;2023-07-16T10:23:19;26.60;71.60
4187;DHT22;2107;52.306;10.484;2023-07-16T10:25:58;26.50;69.90
4187;DHT22;2107;52.306;10.484;2023-07-16T10:28:25;26.80;69.70
4187;DHT22;2107;52.306;10.484;2023-07-16T10:30:52;26.90;69.10
4187;DHT22;2107;52.306;10.484;2023-07-16T10:33:19;27.30;69.00
4187;DHT22;2107;52.306;10.484;2023-07-16T10:35:46;27.20;66.20
4187;DHT22;2107;52.306;10.484;2023-07-16T10:38:14;27.60;68.00
4187;DHT22;2107;52.306;10.484;2023-07-16T10:40:41;27.40;66.10
4187;DHT22;2107;52.306;10.484;2023-07-16T10:43:09;26.70;63.20
4187;DHT22;2107;52.306;10.484;2023-07-16T10:45:36;26.50;63.50
4187;DHT22;2107;52.306;10.484;2023-07-16T10:48:03;26.80;64.20
4187;DHT22;2107;52.306;10.484;2023-07-16T10:50:32;27.50;63.20
4187;DHT22;2107;52.306;10.484;2023-07-16T10:52:59;27.70;63.40
4187;DHT22;2107;52.306;10.484;2023-07-16T10:55:29;28.40;63.30
4187;DHT22;2107;52.306;10.484;2023-07-16T10:57:58;27.50;60.50
4187;DHT22;2107;52.306;10.484;2023-07-16T11:00:25;27.40;60.90
4187;DHT22;2107;52.306;10.484;2023-07-16T11:02:52;27.80;60.90
4187;DHT22;2107;52.306;10.484;2023-07-16T11:05:19;28.20;59.40
4187;DHT22;2107;52.306;10.484;2023-07-16T11:07:48;28.10;60.40
4187;DHT22;2107;52.306;10.484;2023-07-16T11:10:15;28.20;61.00
4187;DHT22;2107;52.306;10.484;2023-07-16T11:12:44;28.30;60.70
4187;DHT22;2107;52.306;10.484;2023-07-16T11:15:11;28.40;61.10
4187;DHT22;2107;52.306;10.484;2023-07-16T11:17:38;28.60;61.00
4187;DHT22;2107;52.306;10.484;2023-07-16T11:20:08;28.70;60.00
4187;DHT22;2107;52.306;10.484;2023-07-16T11:22:37;28.80;59.40
4187;DHT22;2107;52.306;10.484;2023-07-16T11:25:11;28.50;60.60
4187;DHT22;2107;52.306;10.484;2023-07-16T11:27:41;27.40;59.00
4187;DHT22;2107;52.306;10.484;2023-07-16T11:30:10;27.50;59.00
4187;DHT22;2107;52.306;10.484;2023-07-16T11:32:41;27.80;60.50
4187;DHT22;2107;52.306;10.484;2023-07-16T11:35:10;28.20;58.80
4187;DHT22;2107;52.306;10.484;2023-07-16T11:37:38;28.30;59.30
4187;DHT22;2107;52.306;10.484;2023-07-16T11:40:07;28.70;58.50
4187;DHT22;2107;52.306;10.484;2023-07-16T11:42:36;28.90;56.90
4187;DHT22;2107;52.306;10.484;2023-07-16T11:45:04;28.70;57.80
4187;DHT22;2107;52.306;10.484;2023-07-16T11:47:32;28.70;56.30
4187;DHT22;2107;52.306;10.484;2023-07-16T11:49:59;28.30;55.90
4187;DHT22;2107;52.306;10.484;2023-07-16T11:52:27;28.40;56.80
4187;DHT22;2107;52.306;10.484;2023-07-16T11:54:56;27.80;55.70
4187;DHT22;2107;52.306;10.484;2023-07-16T11:57:25;27.60;56.60
4187;DHT22;2107;52.306;10.484;2023-07-16T11:59:52;27.70;57.50
4187;DHT22;2107;52.306;10.484;2023-07-16T12:02:20;28.30;57.10
4187;DHT22;2107;52.306;10.484;2023-07-16T12:04:48;28.60;55.40
4187;DHT22;2107;52.306;10.484;2023-07-16T12:07:15;28.10;53.90
4187;DHT22;2107;52.306;10.484;2023-07-16T12:09:42;28.10;55.30
4187;DHT22;2107;52.306;10.484;2023-07-16T12:12:09;27.80;55.20
4187;DHT22;2107;52.306;10.484;2023-07-16T12:14:36;27.90;56.60
4187;DHT22;2107;52.306;10.484;2023-07-16T12:17:03;28.20;55.20
4187;DHT22;2107;52.306;10.484;2023-07-16T12:19:30;28.00;55.10
4187;DHT22;2107;52.306;10.484;2023-07-16T12:21:58;28.10;54.80
4187;DHT22;2107;52.306;10.484;2023-07-16T12:24:25;28.00;54.40
4187;DHT22;2107;52.306;10.484;2023-07-16T12:26:52;27.80;53.70
4187;DHT22;2107;52.306;10.484;2023-07-16T12:29:19;27.50;54.70
4187;DHT22;2107;52.306;10.484;2023-07-16T12:31:46;27.90;54.80
4187;DHT22;2107;52.306;10.484;2023-07-16T12:34:13;28.30;54.10
4187;DHT22;2107;52.306;10.484;2023-07-16T12:36:40;28.10;54.20
4187;DHT22;2107;52.306;10.484;2023-07-16T12:39:08;27.60;54.60
4187;DHT22;2107;52.306;10.484;2023-07-16T12:41:35;27.30;55.50
4187;DHT22;2107;52.306;10.484;2023-07-16T12:44:02;27.40;54.80
4187;DHT22;2107;52.306;10.484;2023-07-16T12:46:29;27.50;54.70
4187;DHT22;2107;52.306;10.484;2023-07-16T12:48:55;27.40;56.20
4187;DHT22;2107;52.306;10.484;2023-07-16T12:51:22;27.30;53.70
4187;DHT22;2107;52.306;10.484;2023-07-16T12:53:49;27.50;54.40
4187;DHT22;2107;52.306;10.484;2023-07-16T12:56:17;27.40;54.30
4187;DHT22;2107;52.306;10.484;2023-07-16T12:58:44;27.10;54.00
4187;DHT22;2107;52.306;10.484;2023-07-16T13:01:11;28.40;53.50
4187;DHT22;2107;52.306;10.484;2023-07-16T13:03:38;28.90;53.30
4187;DHT22;2107;52.306;10.484;2023-07-16T13:06:05;28.10;51.30
4187;DHT22;2107;52.306;10.484;2023-07-16T13:08:32;27.40;52.20
4187;DHT22;2107;52.306;10.484;2023-07-16T13:10:59;26.90;53.40
4187;DHT22;2107;52.306;10.484;2023-07-16T13:13:28;26.70;53.80
4187;DHT22;2107;52.306;10.484;2023-07-16T13:15:54;27.30;54.80
4187;DHT22;2107;52.306;10.484;2023-07-16T13:18:21;27.20;53.60
4187;DHT22;2107;52.306;10.484;2023-07-16T13:20:48;27.60;52.70
4187;DHT22;2107;52.306;10.484;2023-07-16T13:23:15;29.30;52.80
4187;DHT22;2107;52.306;10.484;2023-07-16T13:25:42;29.80;50.80
4187;DHT22;2107;52.306;10.484;2023-07-16T13:28:09;29.30;49.00
4187;DHT22;2107;52.306;10.484;2023-07-16T13:30:37;30.20;51.80
4187;DHT22;2107;52.306;10.484;2023-07-16T13:33:04;31.90;48.20
4187;DHT22;2107;52.306;10.484;2023-07-16T13:35:31;33.20;46.10
4187;DHT22;2107;52.306;10.484;2023-07-16T13:37:57;33.60;45.90
4187;DHT22;2107;52.306;10.484;2023-07-16T13:40:24;33.60;44.10
4187;DHT22;2107;52.306;10.484;2023-07-16T13:42:51;34.80;44.30
4187;DHT22;2107;52.306;10.484;2023-07-16T13:45:19;35.70;41.60
4187;DHT22;2107;52.306;10.484;2023-07-16T13:47:48;36.30;39.30
4187;DHT22;2107;52.306;10.484;2023-07-16T13:50:17;36.40;40.30
4187;DHT22;2107;52.306;10.484;2023-07-16T13:52:44;33.80;38.50
4187;DHT22;2107;52.306;10.484;2023-07-16T13:55:11;32.40;39.50
4187;DHT22;2107;52.306;10.484;2023-07-16T13:57:38;31.30;40.10
4187;DHT22;2107;52.306;10.484;2023-07-16T14:00:06;30.40;42.20
4187;DHT22;2107;52.306;10.484;2023-07-16T14:02:35;31.00;43.50
4187;DHT22;2107;52.306;10.484;2023-07-16T14:05:03;32.80;41.10
4187;DHT22;2107;52.306;10.484;2023-07-16T14:07:30;33.00;40.10
4187;DHT22;2107;52.306;10.484;2023-07-16T14:09:57;33.70;41.60
4187;DHT22;2107;52.306;10.484;2023-07-16T14:12:24;33.60;39.30
4187;DHT22;2107;52.306;10.484;2023-07-16T14:14:51;32.30;39.00
4187;DHT22;2107;52.306;10.484;2023-07-16T14:17:19;31.40;40.30
4187;DHT22;2107;52.306;10.484;2023-07-16T14:19:46;30.90;40.60
4187;DHT22;2107;52.306;10.484;2023-07-16T14:22:14;30.00;41.90
4187;DHT22;2107;52.306;10.484;2023-07-16T14:24:41;30.50;42.60
4187;DHT22;2107;52.306;10.484;2023-07-16T14:27:08;30.50;41.40
4187;DHT22;2107;52.306;10.484;2023-07-16T14:29:35;29.70;42.90
4187;DHT22;2107;52.306;10.484;2023-07-16T14:32:02;29.40;42.80
4187;DHT22;2107;52.306;10.484;2023-07-16T14:34:30;31.10;43.30
4187;DHT22;2107;52.306;10.484;2023-07-16T14:36:56;33.40;40.00
4187;DHT22;2107;52.306;10.484;2023-07-16T14:39:24;35.30;39.10
4187;DHT22;2107;52.306;10.484;2023-07-16T14:41:52;34.30;38.10
4187;DHT22;2107;52.306;10.484;2023-07-16T14:44:19;34.90;38.60
4187;DHT22;2107;52.306;10.484;2023-07-16T14:46:45;34.80;36.00
4187;DHT22;2107;52.306;10.484;2023-07-16T14:49:12;35.30;36.30
4187;DHT22;2107;52.306;10.484;2023-07-16T14:51:39;35.00;36.70
4187;DHT22;2107;52.306;10.484;2023-07-16T14:54:06;35.70;36.30
4187;DHT22;2107;52.306;10.484;2023-07-16T14:56:35;34.70;36.10
4187;DHT22;2107;52.306;10.484;2023-07-16T14:59:02;35.20;35.20
4187;DHT22;2107;52.306;10.484;2023-07-16T15:01:29;34.80;35.70
4187;DHT22;2107;52.306;10.484;2023-07-16T15:03:56;35.00;36.40
4187;DHT22;2107;52.306;10.484;2023-07-16T15:06:23;33.60;36.90
4187;DHT22;2107;52.306;10.484;2023-07-16T15:08:51;32.80;37.20
4187;DHT22;2107;52.306;10.484;2023-07-16T15:11:18;32.30;37.40
4187;DHT22;2107;52.306;10.484;2023-07-16T15:13:46;34.10;37.50
4187;DHT22;2107;52.306;10.484;2023-07-16T15:16:13;35.10;36.50
4187;DHT22;2107;52.306;10.484;2023-07-16T15:18:40;33.20;36.10
4187;DHT22;2107;52.306;10.484;2023-07-16T15:21:07;33.20;37.30
4187;DHT22;2107;52.306;10.484;2023-07-16T15:23:33;34.30;36.60
4187;DHT22;2107;52.306;10.484;2023-07-16T15:26:01;34.80;36.00
4187;DHT22;2107;52.306;10.484;2023-07-16T15:28:28;34.30;36.60
4187;DHT22;2107;52.306;10.484;2023-07-16T15:31:00;33.80;37.30
4187;DHT22;2107;52.306;10.484;2023-07-16T15:33:27;32.00;38.00
4187;DHT22;2107;52.306;10.484;2023-07-16T15:35:55;31.00;40.10
4187;DHT22;2107;52.306;10.484;2023-07-16T15:38:22;30.20;41.60
4187;DHT22;2107;52.306;10.484;2023-07-16T15:40:49;29.00;42.00
4187;DHT22;2107;52.306;10.484;2023-07-16T15:43:16;28.20;43.90
4187;DHT22;2107;52.306;10.484;2023-07-16T15:45:42;27.80;45.00
4187;DHT22;2107;52.306;10.484;2023-07-16T15:48:11;28.50;43.90